Main page
METAR-TAF:

METAR-TAF

Airports :

Oxford Airport

Oxford, England

latitude: 51-50-13N, longitude: 1-19-12W, elevation: 82 m

Current weather observation

The report was made 1 hour and 0 minutes ago, at 19:50 UTC
Wind 3 kt from the North
Temperature 1°C
Humidity 86%
Pressure 1024 hPa
Visibility 10 km or more
Few clouds at a height of 4200 ft
Scattered clouds at a height of 4700 ft, Cumulonimbus.
showers in vicinity

METAR: EGTK 111950Z 35003KT 9999 VCSH FEW042 SCT047CB 01/M01 Q1024

Time: 21:50 (20:50 UTC)

Forecast

The report was made 3 hours and 57 minutes ago, at 16:53 UTC
Forecast valid from 11 at 18 UTC to 11 at 22 UTC
Wind 8 kt from the North
Visibility 10 km or more
Scattered clouds at a height of 4500 ft
Probability 30% :
Temporary
from 11 at 18 UTC to 11 at 22 UTC
Visibility: 4000 m
light rain showers, snow

TAF: EGTK 111653Z 1118/1122 35008KT 9999 SCT045 PROB30 TEMPO 1118/1122 4000 -SHRASN

Weather observations and forecasts of more than 4000 airports (METAR and TAF reports).

The available stations are represented by yellow and red dots on the map.

Hover mouse over dot to see the name of the station.

Then click to see weather observations and forecasts.

To change the map : click on the green buttons with a black cross to zoom in, on the green button with a dash to zoom out, or on the green arrows for adjacent maps.


METAR-TAF: